createdAt,value
2023-03-28T00:01:02.911Z,3.10
2023-03-28T00:03:35.722Z,3.10
2023-03-28T00:06:09.823Z,3.10
2023-03-28T00:08:40.557Z,3.10
2023-03-28T00:11:11.506Z,3.20
2023-03-28T00:13:39.738Z,3.20
2023-03-28T00:16:12.954Z,3.20
2023-03-28T00:18:42.832Z,3.20
2023-03-28T00:21:23.268Z,3.20
2023-03-28T00:23:53.667Z,3.20
2023-03-28T00:26:24.732Z,3.30
2023-03-28T00:28:53.152Z,3.20
2023-03-28T00:31:23.275Z,3.20
2023-03-28T00:33:51.646Z,3.20
2023-03-28T00:36:26.610Z,3.20
2023-03-28T00:38:55.058Z,3.20
2023-03-28T00:41:24.126Z,3.20
2023-03-28T00:43:54.077Z,3.20
2023-03-28T00:46:29.869Z,3.20
2023-03-28T00:49:03.722Z,3.20
2023-03-28T00:51:35.554Z,3.20
2023-03-28T00:54:06.077Z,3.20
2023-03-28T00:56:37.812Z,3.20
2023-03-28T00:59:09.151Z,3.30
2023-03-28T01:01:38.971Z,3.20
2023-03-28T01:04:10.201Z,3.20
2023-03-28T01:06:42.670Z,3.10
2023-03-28T01:09:11.341Z,3.10
2023-03-28T01:11:42.165Z,3.10
2023-03-28T01:14:13.171Z,3.10
2023-03-28T01:16:43.042Z,3.10
2023-03-28T01:19:22.053Z,3.10
2023-03-28T01:22:28.674Z,3.10
2023-03-28T01:25:23.350Z,3.00
2023-03-28T01:28:02.320Z,2.90
2023-03-28T01:30:52.400Z,2.90
2023-03-28T01:34:01.353Z,2.90
2023-03-28T01:36:59.506Z,3.00
2023-03-28T01:39:38.826Z,3.00
2023-03-28T01:42:15.285Z,3.10
2023-03-28T01:44:49.933Z,3.00
2023-03-28T01:47:25.076Z,3.00
2023-03-28T01:50:02.377Z,3.00
2023-03-28T01:52:37.461Z,3.00
2023-03-28T01:55:11.550Z,3.00
2023-03-28T01:57:45.991Z,3.00
2023-03-28T02:00:22.393Z,3.00
2023-03-28T02:02:55.751Z,3.00
2023-03-28T02:05:25.233Z,3.00
2023-03-28T02:07:55.920Z,3.10
2023-03-28T02:10:27.232Z,3.00
2023-03-28T02:12:59.165Z,3.00
2023-03-28T02:15:29.456Z,3.00
2023-03-28T02:18:02.395Z,3.00
2023-03-28T02:20:33.875Z,3.00
2023-03-28T02:23:07.843Z,3.00
2023-03-28T02:25:36.570Z,3.10
2023-03-28T02:28:07.737Z,3.10
2023-03-28T02:30:37.067Z,3.10
2023-03-28T02:33:09.786Z,3.10
2023-03-28T02:35:51.527Z,3.10
2023-03-28T02:38:31.177Z,3.10
2023-03-28T02:41:09.109Z,3.10
2023-03-28T02:43:50.901Z,3.00
2023-03-28T02:46:24.652Z,3.10
2023-03-28T02:49:18.783Z,3.00
2023-03-28T02:51:53.909Z,3.10
2023-03-28T02:54:34.038Z,3.00
2023-03-28T02:57:10.465Z,3.00
2023-03-28T02:59:44.770Z,3.10
2023-03-28T03:02:18.025Z,3.10
2023-03-28T03:04:46.795Z,3.10
2023-03-28T03:07:17.948Z,3.20
2023-03-28T03:09:47.877Z,3.10
2023-03-28T03:12:15.913Z,3.10
2023-03-28T03:14:44.136Z,3.10
2023-03-28T03:17:12.254Z,3.10
2023-03-28T03:19:43.159Z,3.10
2023-03-28T03:22:11.585Z,3.10
2023-03-28T03:24:51.790Z,3.10
2023-03-28T03:27:20.533Z,3.10
2023-03-28T03:29:49.174Z,3.10
2023-03-28T03:32:17.242Z,3.10
2023-03-28T03:34:45.321Z,3.10
2023-03-28T03:37:14.254Z,3.10
2023-03-28T03:39:42.433Z,3.10
2023-03-28T03:42:12.156Z,3.10
2023-03-28T03:44:41.096Z,3.10
2023-03-28T03:47:09.106Z,3.10
2023-03-28T03:49:37.260Z,3.10
2023-03-28T03:52:05.463Z,3.00
2023-03-28T03:54:35.142Z,3.10
2023-03-28T03:57:04.527Z,3.10
2023-03-28T03:59:34.001Z,3.10
2023-03-28T04:02:02.128Z,3.10
2023-03-28T04:04:30.540Z,3.10
2023-03-28T04:06:59.190Z,3.00
2023-03-28T04:09:27.987Z,3.00
2023-03-28T04:11:56.786Z,3.00
2023-03-28T04:14:25.053Z,3.00
2023-03-28T04:16:54.900Z,2.90
2023-03-28T04:19:24.331Z,2.90
2023-03-28T04:21:52.526Z,2.90
2023-03-28T04:24:24.489Z,2.80
2023-03-28T04:26:56.013Z,2.80
2023-03-28T04:29:30.383Z,2.80
2023-03-28T04:32:00.509Z,2.80
2023-03-28T04:34:30.758Z,2.80
2023-03-28T04:37:01.833Z,2.80
2023-03-28T04:39:30.824Z,2.80
2023-03-28T04:42:02.067Z,2.80
2023-03-28T04:44:31.135Z,2.80
2023-03-28T04:47:00.780Z,2.70
2023-03-28T04:49:28.896Z,2.80
2023-03-28T04:51:57.031Z,2.80
2023-03-28T04:54:25.046Z,2.80
2023-03-28T04:56:53.417Z,2.80
2023-03-28T04:59:21.527Z,2.80
2023-03-28T05:01:50.212Z,2.80
2023-03-28T05:04:21.339Z,2.80
2023-03-28T05:06:50.981Z,2.80
2023-03-28T05:09:19.012Z,2.70
2023-03-28T05:11:47.290Z,2.70
2023-03-28T05:14:15.637Z,2.60
2023-03-28T05:16:43.599Z,2.60
2023-03-28T05:19:11.795Z,2.60
2023-03-28T05:21:41.695Z,2.60
2023-03-28T05:24:10.442Z,2.60
2023-03-28T05:26:38.668Z,2.60
2023-03-28T05:29:06.697Z,2.60
2023-03-28T05:31:34.776Z,2.60
2023-03-28T05:34:02.908Z,2.60
2023-03-28T05:36:31.364Z,2.60
2023-03-28T05:39:00.756Z,2.60
2023-03-28T05:41:29.358Z,2.60
2023-03-28T05:43:57.312Z,2.60
2023-03-28T05:46:25.339Z,2.60
2023-03-28T05:48:53.510Z,2.60
2023-03-28T05:51:21.611Z,2.60
2023-03-28T05:53:49.911Z,2.60
2023-03-28T05:56:19.312Z,2.70
2023-03-28T05:58:48.320Z,2.70
2023-03-28T06:01:18.125Z,2.70
2023-03-28T06:03:46.313Z,2.80
2023-03-28T06:06:15.261Z,2.80
2023-03-28T06:08:43.309Z,2.80
2023-03-28T06:11:11.444Z,2.90
2023-03-28T06:13:40.886Z,3.00
2023-03-28T06:16:09.558Z,3.00
2023-03-28T06:18:37.688Z,3.00
2023-03-28T06:21:06.270Z,3.00
2023-03-28T06:23:34.519Z,3.00
2023-03-28T06:26:03.604Z,3.00
2023-03-28T06:28:31.754Z,3.10
2023-03-28T06:31:01.466Z,3.00
2023-03-28T06:33:29.942Z,3.00
2023-03-28T06:35:57.988Z,3.10
2023-03-28T06:38:26.121Z,3.10
2023-03-28T06:40:54.599Z,3.10
2023-03-28T06:43:22.664Z,3.10
2023-03-28T06:45:51.665Z,3.20
2023-03-28T06:48:21.205Z,3.10
2023-03-28T06:50:50.266Z,3.20
2023-03-28T06:53:18.943Z,3.20
2023-03-28T06:55:47.078Z,3.30
2023-03-28T06:58:15.155Z,3.30
2023-03-28T07:00:43.173Z,3.50
2023-03-28T07:03:11.500Z,3.50
2023-03-28T07:05:41.761Z,3.60
2023-03-28T07:08:11.817Z,3.80
2023-03-28T07:10:41.187Z,3.80
2023-03-28T07:13:09.612Z,3.90
2023-03-28T07:15:37.767Z,3.90
2023-03-28T07:18:07.134Z,3.90
2023-03-28T07:20:35.589Z,4.00
2023-03-28T07:23:05.032Z,4.10
2023-03-28T07:25:33.258Z,4.00
2023-03-28T07:28:01.521Z,4.00
2023-03-28T07:30:29.981Z,4.10
2023-03-28T07:33:08.621Z,4.10
2023-03-28T07:35:45.346Z,4.30
2023-03-28T07:38:14.737Z,4.40
2023-03-28T07:40:43.517Z,4.50
2023-03-28T07:43:11.821Z,4.40
2023-03-28T07:45:40.043Z,4.50
2023-03-28T07:48:09.078Z,4.60
2023-03-28T07:50:37.280Z,4.70
2023-03-28T07:53:05.361Z,4.70
2023-03-28T07:55:48.475Z,4.80
2023-03-28T07:58:23.025Z,4.90
2023-03-28T08:00:51.950Z,5.10
2023-03-28T08:03:20.101Z,5.40
2023-03-28T08:05:52.069Z,5.60
2023-03-28T08:08:21.567Z,5.60
2023-03-28T08:10:51.612Z,5.70
2023-03-28T08:13:21.019Z,5.90
2023-03-28T08:15:53.595Z,6.10
2023-03-28T08:18:25.404Z,6.20
2023-03-28T08:21:00.125Z,6.30
2023-03-28T08:23:29.017Z,6.20
2023-03-28T08:26:04.808Z,6.10
2023-03-28T08:28:34.282Z,6.10
2023-03-28T08:31:02.789Z,6.10
2023-03-28T08:33:32.810Z,6.30
2023-03-28T08:36:01.022Z,6.30
2023-03-28T08:38:29.645Z,6.30
2023-03-28T08:41:07.964Z,6.40
2023-03-28T08:44:00.716Z,6.50
2023-03-28T08:46:30.725Z,6.60
2023-03-28T08:49:01.053Z,6.60
2023-03-28T08:51:35.521Z,6.70
2023-03-28T08:54:11.351Z,6.70
2023-03-28T08:56:45.728Z,6.70
2023-03-28T08:59:16.666Z,6.90
2023-03-28T09:01:46.419Z,6.90
2023-03-28T09:04:23.190Z,6.90
2023-03-28T09:06:53.964Z,7.00
2023-03-28T09:09:35.390Z,7.00
2023-03-28T09:12:20.267Z,7.00
2023-03-28T09:15:14.791Z,7.10
2023-03-28T09:17:52.627Z,7.30
2023-03-28T09:20:29.572Z,7.40
2023-03-28T09:23:13.165Z,7.60
2023-03-28T09:25:47.155Z,7.80
2023-03-28T09:28:31.114Z,7.90
2023-03-28T09:31:00.585Z,8.00
2023-03-28T09:33:32.131Z,8.20
2023-03-28T09:36:00.736Z,8.30
2023-03-28T09:38:34.522Z,8.50
2023-03-28T09:41:07.140Z,8.60
2023-03-28T09:43:44.218Z,8.60
2023-03-28T09:46:19.461Z,8.50
2023-03-28T09:48:48.219Z,8.60
2023-03-28T09:51:17.934Z,8.60
2023-03-28T09:53:46.648Z,8.80
2023-03-28T09:56:22.831Z,9.00
2023-03-28T09:58:54.829Z,9.20
2023-03-28T10:01:42.845Z,9.00
2023-03-28T10:04:13.653Z,9.00
2023-03-28T10:06:43.230Z,9.20
2023-03-28T10:09:19.467Z,9.20
2023-03-28T10:11:54.422Z,9.00
2023-03-28T10:14:36.292Z,9.00
2023-03-28T10:17:07.989Z,9.10
2023-03-28T10:19:39.010Z,9.20
2023-03-28T10:22:12.223Z,9.10
2023-03-28T10:24:41.173Z,8.80
2023-03-28T10:27:17.278Z,8.80
2023-03-28T10:29:47.832Z,9.00
2023-03-28T10:32:26.588Z,9.30
2023-03-28T10:35:08.204Z,9.50
2023-03-28T10:37:36.585Z,9.60
2023-03-28T10:40:07.802Z,9.80
2023-03-28T10:42:43.828Z,10.00
2023-03-28T10:45:23.804Z,10.00
2023-03-28T10:47:54.669Z,10.00
2023-03-28T10:50:28.773Z,10.10
2023-03-28T10:53:13.763Z,10.30
2023-03-28T10:55:51.689Z,10.30
2023-03-28T10:58:28.823Z,10.50
2023-03-28T11:01:05.780Z,10.60
2023-03-28T11:03:46.901Z,10.60
2023-03-28T11:06:21.750Z,10.50
2023-03-28T11:09:01.749Z,10.40
2023-03-28T11:11:41.225Z,10.50
2023-03-28T11:14:20.751Z,10.40
2023-03-28T11:16:58.966Z,10.20
2023-03-28T11:19:41.351Z,10.30
2023-03-28T11:22:20.786Z,10.50
2023-03-28T11:24:56.235Z,10.50
2023-03-28T11:27:30.260Z,10.40
2023-03-28T11:30:04.134Z,10.60
2023-03-28T11:32:39.599Z,10.80
2023-03-28T11:35:17.112Z,10.80
2023-03-28T11:37:48.978Z,10.80
2023-03-28T11:40:23.245Z,11.00
2023-03-28T11:42:57.134Z,10.90
2023-03-28T11:45:42.539Z,10.80
2023-03-28T11:48:24.528Z,10.70
2023-03-28T11:51:03.886Z,10.60
2023-03-28T11:53:36.606Z,10.50
2023-03-28T11:56:15.061Z,10.60
2023-03-28T11:58:47.306Z,10.40
2023-03-28T12:01:18.291Z,10.30
2023-03-28T12:03:59.530Z,10.20
2023-03-28T12:06:33.909Z,10.30
2023-03-28T12:09:06.811Z,10.40
2023-03-28T12:11:40.227Z,10.70
2023-03-28T12:14:30.321Z,10.90
2023-03-28T12:16:59.802Z,11.20
2023-03-28T12:19:34.889Z,11.40
2023-03-28T12:22:09.184Z,11.40
2023-03-28T12:24:46.577Z,11.40
2023-03-28T12:27:25.523Z,11.20
2023-03-28T12:29:59.163Z,11.00
2023-03-28T12:32:37.741Z,11.00
2023-03-28T12:35:15.551Z,11.10
2023-03-28T12:37:52.928Z,11.10
2023-03-28T12:40:27.247Z,10.90
2023-03-28T12:42:58.714Z,10.80
2023-03-28T12:45:31.234Z,10.70
2023-03-28T12:48:04.580Z,10.60
2023-03-28T12:50:42.120Z,10.30
2023-03-28T12:53:13.795Z,10.30
2023-03-28T12:55:49.889Z,10.40
2023-03-28T12:58:27.350Z,10.50
2023-03-28T13:01:35.666Z,10.60
2023-03-28T13:04:14.981Z,10.50
2023-03-28T13:06:53.037Z,10.40
2023-03-28T13:09:40.958Z,10.40
2023-03-28T13:12:29.275Z,10.30
2023-03-28T13:15:02.469Z,10.20
2023-03-28T13:17:32.879Z,10.20
2023-03-28T13:20:10.565Z,10.30
2023-03-28T13:22:44.236Z,10.50
2023-03-28T13:25:25.916Z,10.60
2023-03-28T13:27:56.942Z,10.50
2023-03-28T13:30:26.492Z,10.40
2023-03-28T13:32:57.389Z,10.50
2023-03-28T13:35:50.353Z,10.60
2023-03-28T13:38:37.030Z,10.70
2023-03-28T13:41:09.355Z,10.80
2023-03-28T13:43:44.851Z,10.70
2023-03-28T13:46:16.168Z,10.60
2023-03-28T13:48:48.194Z,10.50
2023-03-28T13:51:22.697Z,10.40
2023-03-28T13:53:52.116Z,10.40
2023-03-28T13:56:26.567Z,10.40
2023-03-28T13:58:56.454Z,10.50
2023-03-28T14:01:26.990Z,10.40
2023-03-28T14:03:56.311Z,10.40
2023-03-28T14:06:27.320Z,10.40
2023-03-28T14:09:00.457Z,10.40
2023-03-28T14:11:32.687Z,10.40
2023-03-28T14:14:08.786Z,10.40
2023-03-28T14:16:38.113Z,10.40
2023-03-28T14:19:07.815Z,10.50
2023-03-28T14:21:36.196Z,10.60
2023-03-28T14:24:07.874Z,10.60
2023-03-28T14:26:37.803Z,10.70
2023-03-28T14:29:11.589Z,10.70
2023-03-28T14:31:41.812Z,10.80
2023-03-28T14:34:19.749Z,10.70
2023-03-28T14:37:03.576Z,10.70
2023-03-28T14:39:35.003Z,10.70
2023-03-28T14:42:05.989Z,10.80
2023-03-28T14:44:38.392Z,10.80
2023-03-28T14:47:07.779Z,10.70
2023-03-28T14:49:38.262Z,10.80
2023-03-28T14:52:12.836Z,10.80
2023-03-28T14:54:46.899Z,10.80
2023-03-28T14:57:18.008Z,10.90
2023-03-28T14:59:49.406Z,11.00
2023-03-28T15:02:24.794Z,11.10
2023-03-28T15:04:53.614Z,11.10
2023-03-28T15:07:26.382Z,11.10
2023-03-28T15:10:11.547Z,11.10
2023-03-28T15:12:47.175Z,11.10
2023-03-28T15:15:18.225Z,11.10
2023-03-28T15:17:47.661Z,11.00
2023-03-28T15:20:19.375Z,11.00
2023-03-28T15:22:50.857Z,11.00
2023-03-28T15:25:21.848Z,10.80
2023-03-28T15:27:53.071Z,10.90
2023-03-28T15:30:21.906Z,11.10
2023-03-28T15:32:51.218Z,11.00
2023-03-28T15:35:29.085Z,11.00
2023-03-28T15:38:07.301Z,10.90
2023-03-28T15:40:42.008Z,10.90
2023-03-28T15:43:37.794Z,10.80
2023-03-28T15:46:11.684Z,10.70
2023-03-28T15:48:41.864Z,10.60
2023-03-28T15:51:14.740Z,10.50
2023-03-28T15:53:43.908Z,10.50
2023-03-28T15:56:20.314Z,10.40
2023-03-28T15:58:48.816Z,10.30
2023-03-28T16:01:27.059Z,10.20
2023-03-28T16:04:24.891Z,10.00
2023-03-28T16:06:57.070Z,9.90
2023-03-28T16:09:26.850Z,9.90
2023-03-28T16:12:00.720Z,9.90
2023-03-28T16:14:28.937Z,9.90
2023-03-28T16:16:57.937Z,9.90
2023-03-28T16:19:28.237Z,9.80
2023-03-28T16:21:59.747Z,9.80
2023-03-28T16:24:29.151Z,9.70
2023-03-28T16:26:58.609Z,9.70
2023-03-28T16:29:26.623Z,9.70
2023-03-28T16:31:54.798Z,9.70
2023-03-28T16:34:22.893Z,9.70
2023-03-28T16:36:51.112Z,9.60
2023-03-28T16:39:19.169Z,9.60
2023-03-28T16:41:47.184Z,9.60
2023-03-28T16:44:16.845Z,9.60
2023-03-28T16:46:44.963Z,9.60
2023-03-28T16:49:13.085Z,9.60
2023-03-28T16:51:41.148Z,9.50
2023-03-28T16:54:10.203Z,9.40
2023-03-28T16:56:38.907Z,9.50
2023-03-28T16:59:08.196Z,9.40
2023-03-28T17:01:39.042Z,9.30
2023-03-28T17:04:07.356Z,9.30
2023-03-28T17:06:35.708Z,9.30
2023-03-28T17:09:04.602Z,9.30
2023-03-28T17:11:32.890Z,9.30
2023-03-28T17:14:00.870Z,9.30
2023-03-28T17:16:29.095Z,9.20
2023-03-28T17:18:58.445Z,9.20
2023-03-28T17:21:26.447Z,9.20
2023-03-28T17:23:55.534Z,9.10
2023-03-28T17:26:23.661Z,9.10
2023-03-28T17:28:52.119Z,9.10
2023-03-28T17:31:21.650Z,9.10
2023-03-28T17:33:49.876Z,9.00
2023-03-28T17:36:22.550Z,8.90
2023-03-28T17:38:51.528Z,8.80
2023-03-28T17:41:19.808Z,8.80
2023-03-28T17:43:48.006Z,8.80
2023-03-28T17:46:17.204Z,8.80
2023-03-28T17:48:45.551Z,8.70
2023-03-28T17:51:13.807Z,8.70
2023-03-28T17:53:46.523Z,8.60
2023-03-28T17:56:14.862Z,8.60
2023-03-28T17:58:43.192Z,8.60
2023-03-28T18:01:12.597Z,8.50
2023-03-28T18:03:41.157Z,8.50
2023-03-28T18:06:10.084Z,8.50
2023-03-28T18:08:38.110Z,8.50
2023-03-28T18:11:10.040Z,8.50
2023-03-28T18:13:40.904Z,8.50
2023-03-28T18:16:10.807Z,8.50
2023-03-28T18:18:40.252Z,8.40
2023-03-28T18:21:11.267Z,8.30
2023-03-28T18:23:39.352Z,8.30
2023-03-28T18:26:09.140Z,8.30
2023-03-28T18:28:37.439Z,8.30
2023-03-28T18:31:10.663Z,8.20
2023-03-28T18:33:39.340Z,8.20
2023-03-28T18:36:08.411Z,8.10
2023-03-28T18:38:38.201Z,8.10
2023-03-28T18:41:09.198Z,8.00
2023-03-28T18:43:38.123Z,8.00
2023-03-28T18:46:07.632Z,8.00
2023-03-28T18:48:37.186Z,7.90
2023-03-28T18:51:06.343Z,7.90
2023-03-28T18:53:34.799Z,7.90
2023-03-28T18:56:03.775Z,7.90
2023-03-28T18:58:33.308Z,7.80
2023-03-28T19:01:03.781Z,7.70
2023-03-28T19:03:38.635Z,7.70
2023-03-28T19:06:08.840Z,7.70
2023-03-28T19:08:37.206Z,7.70
2023-03-28T19:11:08.995Z,7.60
2023-03-28T19:13:38.450Z,7.60
2023-03-28T19:16:08.459Z,7.60
2023-03-28T19:18:39.045Z,7.60
2023-03-28T19:21:08.019Z,7.60
2023-03-28T19:23:37.535Z,7.60
2023-03-28T19:26:06.798Z,7.60
2023-03-28T19:28:35.230Z,7.50
2023-03-28T19:31:10.006Z,7.50
2023-03-28T19:33:40.608Z,7.50
2023-03-28T19:36:09.260Z,7.50
2023-03-28T19:38:38.732Z,7.50
2023-03-28T19:41:11.247Z,7.50
2023-03-28T19:43:40.301Z,7.50
2023-03-28T19:46:12.564Z,7.50
2023-03-28T19:48:41.426Z,7.50
2023-03-28T19:51:09.539Z,7.50
2023-03-28T19:53:37.575Z,7.50
2023-03-28T19:56:07.047Z,7.40
2023-03-28T19:58:35.184Z,7.40
2023-03-28T20:01:03.980Z,7.40
2023-03-28T20:03:34.063Z,7.40
2023-03-28T20:06:04.684Z,7.40
2023-03-28T20:08:34.342Z,7.40
2023-03-28T20:11:03.677Z,7.40
2023-03-28T20:13:31.959Z,7.40
2023-03-28T20:16:03.065Z,7.40
2023-03-28T20:18:32.386Z,7.40
2023-03-28T20:21:04.204Z,7.50
2023-03-28T20:23:33.158Z,7.40
2023-03-28T20:26:02.064Z,7.50
2023-03-28T20:28:32.088Z,7.40
2023-03-28T20:31:00.753Z,7.40
2023-03-28T20:33:29.058Z,7.40
2023-03-28T20:36:00.493Z,7.40
2023-03-28T20:38:30.530Z,7.40
2023-03-28T20:40:59.040Z,7.30
2023-03-28T20:43:29.537Z,7.40
2023-03-28T20:46:01.453Z,7.30
2023-03-28T20:48:36.605Z,7.30
2023-03-28T20:51:06.802Z,7.30
2023-03-28T20:53:36.471Z,7.30
2023-03-28T20:56:06.419Z,7.30
2023-03-28T20:58:38.738Z,7.30
2023-03-28T21:01:08.794Z,7.30
2023-03-28T21:03:49.868Z,7.40
2023-03-28T21:06:20.560Z,7.40
2023-03-28T21:08:52.634Z,7.30
2023-03-28T21:11:23.609Z,7.30
2023-03-28T21:13:51.829Z,7.30
2023-03-28T21:16:21.084Z,7.20
2023-03-28T21:18:49.955Z,7.20
2023-03-28T21:21:19.745Z,7.20
2023-03-28T21:23:49.759Z,7.20
2023-03-28T21:26:20.259Z,7.20
2023-03-28T21:28:48.946Z,7.20
2023-03-28T21:31:19.900Z,7.20
2023-03-28T21:33:49.023Z,7.20
2023-03-28T21:36:19.103Z,7.10
2023-03-28T21:38:49.146Z,7.10
2023-03-28T21:41:17.688Z,7.10
2023-03-28T21:43:47.626Z,7.10
2023-03-28T21:46:18.790Z,7.00
2023-03-28T21:48:48.309Z,7.00
2023-03-28T21:51:17.393Z,7.10
2023-03-28T21:53:45.773Z,7.10
2023-03-28T21:56:16.688Z,7.10
2023-03-28T21:58:45.186Z,7.10
2023-03-28T22:01:15.164Z,7.10
2023-03-28T22:03:44.489Z,7.10
2023-03-28T22:06:12.636Z,7.10
2023-03-28T22:08:40.907Z,7.20
2023-03-28T22:11:14.781Z,7.10
2023-03-28T22:13:45.187Z,7.10
2023-03-28T22:16:14.208Z,7.10
2023-03-28T22:18:50.424Z,7.10
2023-03-28T22:21:18.858Z,7.00
2023-03-28T22:23:47.866Z,7.00
2023-03-28T22:26:18.169Z,7.00
2023-03-28T22:28:46.238Z,7.00
2023-03-28T22:31:16.973Z,7.00
2023-03-28T22:33:45.303Z,7.00
2023-03-28T22:36:13.663Z,7.00
2023-03-28T22:38:41.921Z,7.00
2023-03-28T22:41:10.500Z,7.00
2023-03-28T22:43:42.604Z,7.00
2023-03-28T22:46:12.564Z,7.00
2023-03-28T22:48:41.969Z,6.90
2023-03-28T22:51:11.839Z,6.90
2023-03-28T22:53:40.648Z,6.90
2023-03-28T22:56:10.047Z,6.90
2023-03-28T22:58:39.905Z,6.80
2023-03-28T23:01:08.986Z,6.80
2023-03-28T23:03:37.588Z,6.90
2023-03-28T23:06:06.756Z,6.80
2023-03-28T23:08:35.145Z,6.80
2023-03-28T23:11:03.347Z,6.70
2023-03-28T23:13:31.625Z,6.70
2023-03-28T23:16:01.246Z,6.70
2023-03-28T23:18:30.982Z,6.60
2023-03-28T23:20:59.121Z,6.60
2023-03-28T23:23:27.410Z,6.60
2023-03-28T23:25:55.620Z,6.60
2023-03-28T23:28:23.557Z,6.50
2023-03-28T23:30:51.977Z,6.50
2023-03-28T23:33:21.368Z,6.50
2023-03-28T23:35:49.789Z,6.60
2023-03-28T23:38:17.951Z,6.50
2023-03-28T23:40:46.841Z,6.50
2023-03-28T23:43:14.873Z,6.50
2023-03-28T23:45:43.758Z,6.40
2023-03-28T23:48:11.774Z,6.40
2023-03-28T23:50:41.518Z,6.40
2023-03-28T23:53:09.606Z,6.30
2023-03-28T23:55:38.037Z,6.30
2023-03-28T23:58:06.924Z,6.30
